Time;durP1;ratioP1;P1;durP2;ratioP2;P2;SDS_P1;SDS_P2;PMS_P1;PMS_P2;Temp;Humidity;BMP_temperature;BMP_pressure;BME280_temperature;BME280_humidity;BME280_pressure;Samples;Min_cycle;Max_cycle;Signal;HPM_P1;HPM_P2
2023/03/17 00:01:04;;;;;;;5.45;2.95;;;;;;;7.16;69.77;100731.28;4949690;28;20058;-75
2023/03/17 00:03:34;;;;;;;5.57;3.60;;;;;;;7.16;70.13;100726.75;4948798;28;20085;-76
2023/03/17 00:06:00;;;;;;;7.03;3.42;;;;;;;7.13;70.58;100734.19;4948369;29;20492;-76
2023/03/17 00:08:32;;;;;;;8.75;3.60;;;;;;;7.14;69.78;100741.34;4949319;28;20024;-76
2023/03/17 00:10:58;;;;;;;5.05;2.72;;;;;;;7.13;70.03;100739.59;4947743;28;20186;-76
2023/03/17 00:13:24;;;;;;;5.75;3.42;;;;;;;7.09;70.93;100732.66;4947491;28;20042;-76
2023/03/17 00:16:16;;;;;;;7.78;3.70;;;;;;;7.03;70.46;100733.84;4947589;28;20035;-75
2023/03/17 00:18:42;;;;;;;8.65;3.30;;;;;;;6.93;71.60;100723.69;4935670;29;20059;-75
2023/03/17 00:21:16;;;;;;;6.05;3.40;;;;;;;6.83;71.64;100701.72;4947497;29;20035;-76
2023/03/17 00:23:48;;;;;;;8.18;4.90;;;;;;;6.79;72.18;100695.63;4953033;28;20073;-75
2023/03/17 00:26:14;;;;;;;5.67;3.20;;;;;;;6.77;72.18;100692.16;4949797;28;20059;-75
2023/03/17 00:28:39;;;;;;;5.03;3.33;;;;;;;6.75;72.14;100685.06;4949182;28;20596;-76
2023/03/17 00:31:17;;;;;;;4.03;2.80;;;;;;;6.72;72.73;100686.16;4948808;28;20038;-75
2023/03/17 00:33:45;;;;;;;4.85;3.08;;;;;;;6.70;72.74;100681.78;4947108;28;20065;-75
2023/03/17 00:36:16;;;;;;;9.57;2.95;;;;;;;6.67;72.97;100681.94;4947081;29;20038;-75
2023/03/17 00:38:43;;;;;;;6.00;3.25;;;;;;;6.67;72.93;100679.25;4946436;29;20037;-75
2023/03/17 00:41:10;;;;;;;3.30;2.70;;;;;;;6.61;72.69;100684.06;4946516;29;20431;-75
2023/03/17 00:43:35;;;;;;;4.03;3.17;;;;;;;6.60;73.41;100687.72;4946412;28;20039;-75
2023/03/17 00:46:01;;;;;;;3.03;2.72;;;;;;;6.58;73.03;100689.66;4949362;28;20041;-75
2023/03/17 00:48:28;;;;;;;3.47;2.97;;;;;;;6.59;73.41;100688.69;4948168;28;20087;-75
2023/03/17 00:50:54;;;;;;;5.25;3.05;;;;;;;6.58;73.58;100677.97;4948378;29;20023;-76
2023/03/17 00:53:20;;;;;;;4.70;2.95;;;;;;;6.55;73.77;100681.72;4947102;28;20035;-75
2023/03/17 00:55:47;;;;;;;4.65;2.85;;;;;;;6.55;73.75;100681.72;4930774;29;20588;-75
2023/03/17 00:58:17;;;;;;;3.85;2.78;;;;;;;6.56;73.40;100677.19;4930188;29;20049;-76
2023/03/17 01:00:43;;;;;;;4.00;2.78;;;;;;;6.56;74.06;100674.47;4932684;29;20063;-76
2023/03/17 01:03:11;;;;;;;4.75;2.67;;;;;;;6.55;73.16;100681.72;4931146;28;20050;-75
2023/03/17 01:05:38;;;;;;;5.03;2.92;;;;;;;6.56;73.82;100682.59;4946340;28;20028;-75
2023/03/17 01:08:03;;;;;;;8.85;2.83;;;;;;;6.53;73.86;100680.09;4947722;28;20039;-76
2023/03/17 01:10:29;;;;;;;4.00;2.50;;;;;;;6.50;73.71;100682.97;4948058;29;20046;-76
2023/03/17 01:12:59;;;;;;;5.45;2.65;;;;;;;6.50;73.82;100683.81;4945816;29;20022;-76
2023/03/17 01:15:28;;;;;;;3.15;2.58;;;;;;;6.48;73.50;100684.84;4940743;29;20156;-76
2023/03/17 01:17:56;;;;;;;6.32;3.30;;;;;;;6.45;73.89;100677.81;4949446;28;20163;-76
2023/03/17 01:20:26;;;;;;;6.38;4.65;;;;;;;6.42;73.25;100669.88;4946524;28;20604;-76
2023/03/17 01:22:52;;;;;;;3.83;2.63;;;;;;;6.39;73.89;100668.25;4930473;29;20753;-76
2023/03/17 01:25:18;;;;;;;4.05;2.92;;;;;;;6.31;73.62;100654.31;4945765;29;20035;-76
2023/03/17 01:27:45;;;;;;;5.07;3.38;;;;;;;6.29;74.15;100664.31;4945628;29;20043;-76
2023/03/17 01:30:32;;;;;;;3.65;3.05;;;;;;;6.25;74.25;100657.38;4947300;28;20043;-76
2023/03/17 01:32:58;;;;;;;5.43;2.85;;;;;;;6.19;74.23;100659.53;4953118;28;20133;-76
2023/03/17 01:35:26;;;;;;;4.57;2.85;;;;;;;6.16;74.23;100660.59;4963370;28;20582;-76
2023/03/17 01:37:52;;;;;;;5.72;3.35;;;;;;;6.11;74.78;100657.28;4953897;28;20209;-76
2023/03/17 01:40:23;;;;;;;4.53;2.65;;;;;;;6.09;75.10;100656.50;4946992;29;20574;-76
2023/03/17 01:42:59;;;;;;;5.37;3.10;;;;;;;6.08;74.96;100650.22;4944832;28;20097;-76
2023/03/17 01:46:02;;;;;;;5.22;2.75;;;;;;;6.07;74.72;100659.28;4945535;28;20169;-76
2023/03/17 01:48:30;;;;;;;5.97;3.47;;;;;;;6.03;75.21;100652.31;4948555;29;20042;-75
2023/03/17 01:50:57;;;;;;;6.05;3.28;;;;;;;6.01;74.94;100656.91;4946303;28;20074;-76
2023/03/17 01:53:24;;;;;;;7.47;3.47;;;;;;;5.99;75.63;100653.44;4947215;28;20376;-76
2023/03/17 01:55:50;;;;;;;4.63;3.47;;;;;;;5.93;75.49;100648.41;4945394;28;20019;-76
2023/03/17 01:58:19;;;;;;;4.50;2.70;;;;;;;5.91;75.16;100642.16;4945123;28;20157;-76
2023/03/17 02:00:45;;;;;;;5.47;3.08;;;;;;;5.88;75.64;100642.34;4943308;29;20134;-76
2023/03/17 02:03:11;;;;;;;5.65;4.15;;;;;;;5.84;75.94;100635.38;4946560;28;20531;-75
2023/03/17 02:05:38;;;;;;;9.55;4.22;;;;;;;5.80;76.01;100639.19;4949055;28;20049;-75
2023/03/17 02:08:12;;;;;;;4.35;2.63;;;;;;;5.75;75.99;100638.59;4951962;28;20178;-75
2023/03/17 02:10:39;;;;;;;6.45;3.40;;;;;;;5.73;75.91;100627.00;4947329;29;20479;-76
2023/03/17 02:13:06;;;;;;;5.72;3.08;;;;;;;5.69;76.48;100620.91;4944569;28;20234;-75
2023/03/17 02:15:51;;;;;;;4.55;3.00;;;;;;;5.69;76.21;100620.91;4946564;28;20399;-75
2023/03/17 02:18:20;;;;;;;5.75;2.97;;;;;;;5.66;76.48;100620.22;4964096;28;20035;-76
2023/03/17 02:20:45;;;;;;;4.40;2.90;;;;;;;5.67;76.69;100622.81;4955678;28;20125;-75
2023/03/17 02:23:15;;;;;;;7.28;3.13;;;;;;;5.68;76.69;100621.84;4947031;28;20460;-76
2023/03/17 02:25:44;;;;;;;8.27;3.15;;;;;;;5.68;76.84;100621.84;4944614;29;20499;-76
2023/03/17 02:28:13;;;;;;;7.22;3.47;;;;;;;5.71;76.77;100621.69;4946221;28;20494;-75
2023/03/17 02:30:40;;;;;;;8.10;3.20;;;;;;;5.73;77.29;100621.59;4947223;28;20687;-76
2023/03/17 02:33:06;;;;;;;4.85;3.40;;;;;;;5.71;77.10;100608.19;4947373;29;20403;-76
2023/03/17 02:35:32;;;;;;;4.88;3.22;;;;;;;5.73;76.74;100608.09;4945984;29;20499;-76
2023/03/17 02:37:57;;;;;;;4.18;3.15;;;;;;;5.72;76.15;100609.94;4944212;29;20032;-76
2023/03/17 02:40:23;;;;;;;5.90;3.03;;;;;;;5.75;77.04;100607.06;4946575;29;20043;-76
2023/03/17 02:42:50;;;;;;;4.72;3.22;;;;;;;5.75;77.01;100598.97;4944287;28;20035;-75
2023/03/17 02:45:16;;;;;;;4.53;3.30;;;;;;;5.75;77.49;100588.19;4945067;28;20098;-75
2023/03/17 02:47:44;;;;;;;6.50;3.83;;;;;;;5.76;76.92;100592.63;4946071;28;20035;-76
2023/03/17 02:50:18;;;;;;;4.85;2.80;;;;;;;5.77;76.88;100596.19;4929013;29;20066;-75
2023/03/17 02:52:44;;;;;;;5.32;2.50;;;;;;;5.76;76.63;100591.75;4955770;28;20122;-75
2023/03/17 02:55:09;;;;;;;4.40;2.85;;;;;;;5.77;76.97;100590.78;4946578;28;20129;-75
2023/03/17 02:57:35;;;;;;;3.90;2.55;;;;;;;5.76;76.84;100589.03;4948501;28;20046;-75
2023/03/17 03:00:00;;;;;;;5.07;2.75;;;;;;;5.74;76.20;100586.44;4949252;28;20549;-75
2023/03/17 03:02:26;;;;;;;5.45;3.10;;;;;;;5.73;76.94;100589.22;4950571;29;20046;-76
2023/03/17 03:04:51;;;;;;;5.53;2.75;;;;;;;5.71;76.47;100593.84;4948644;28;20093;-75
2023/03/17 03:07:17;;;;;;;3.55;2.78;;;;;;;5.69;76.55;100598.44;4949991;28;20043;-75
2023/03/17 03:09:42;;;;;;;5.18;3.17;;;;;;;5.70;76.54;100598.38;4948831;29;20506;-76
2023/03/17 03:12:08;;;;;;;3.92;2.72;;;;;;;5.72;76.79;100604.53;4949200;29;20046;-76
2023/03/17 03:14:34;;;;;;;5.57;3.17;;;;;;;5.72;76.94;100598.28;4946933;29;20039;-76
2023/03/17 03:16:59;;;;;;;6.10;2.80;;;;;;;5.73;76.49;100590.06;4949652;29;20042;-75
2023/03/17 03:19:25;;;;;;;4.78;3.17;;;;;;;5.72;76.63;100585.63;4947876;29;20414;-75
2023/03/17 03:21:50;;;;;;;7.00;3.22;;;;;;;5.73;76.44;100595.47;4932638;28;20033;-75
2023/03/17 03:24:16;;;;;;;6.47;3.13;;;;;;;5.74;76.73;100599.94;4948686;28;20089;-75
2023/03/17 03:26:41;;;;;;;6.35;3.65;;;;;;;5.76;75.68;100611.50;4947171;29;20051;-75
2023/03/17 03:29:07;;;;;;;6.28;2.88;;;;;;;5.77;76.29;100612.38;4948594;28;20102;-75
2023/03/17 03:31:33;;;;;;;4.45;3.05;;;;;;;5.77;75.82;100604.28;4948703;29;20019;-75
2023/03/17 03:33:58;;;;;;;10.45;3.25;;;;;;;5.76;75.99;100603.41;4950422;29;20031;-76
2023/03/17 03:36:25;;;;;;;7.65;3.33;;;;;;;5.76;75.80;100600.72;4949610;28;20023;-75
2023/03/17 03:38:51;;;;;;;7.57;3.50;;;;;;;5.75;76.01;100595.41;4947613;29;20039;-75
2023/03/17 03:41:16;;;;;;;10.15;4.00;;;;;;;5.73;75.74;100608.09;4946599;28;20049;-75
2023/03/17 03:43:42;;;;;;;6.03;3.15;;;;;;;5.72;75.62;100615.31;4949503;28;20376;-75
2023/03/17 03:46:07;;;;;;;5.63;3.13;;;;;;;5.71;75.98;100610.03;4949196;28;20118;-75
2023/03/17 03:48:32;;;;;;;5.60;3.70;;;;;;;5.69;76.12;100609.22;4948080;28;20043;-75
2023/03/17 03:51:00;;;;;;;5.50;3.25;;;;;;;5.67;76.20;100622.81;4949039;29;20451;-75
2023/03/17 03:53:26;;;;;;;6.90;3.20;;;;;;;5.64;75.61;100620.28;4949481;28;20065;-75
2023/03/17 03:55:52;;;;;;;6.88;3.70;;;;;;;5.62;76.63;100614.09;4915734;29;20066;-75
2023/03/17 03:58:18;;;;;;;9.70;3.20;;;;;;;5.58;75.92;100613.41;4948888;28;20558;-76
2023/03/17 04:00:43;;;;;;;5.60;3.40;;;;;;;5.59;76.19;100625.06;4949140;28;20053;-75
2023/03/17 04:03:09;;;;;;;3.35;2.63;;;;;;;5.57;76.82;100632.38;4948087;28;20031;-75
2023/03/17 04:05:34;;;;;;;9.65;3.13;;;;;;;5.54;76.40;100630.72;4947520;28;20070;-76
2023/03/17 04:08:00;;;;;;;6.25;3.25;;;;;;;5.48;77.21;100628.38;4932314;29;20046;-76
2023/03/17 04:10:25;;;;;;;7.97;3.53;;;;;;;5.49;76.61;100631.94;4931163;29;20076;-76
2023/03/17 04:12:50;;;;;;;7.00;3.30;;;;;;;5.49;76.36;100629.22;4931674;29;20270;-75
2023/03/17 04:15:18;;;;;;;9.15;3.75;;;;;;;5.52;76.33;100627.25;4943434;29;20047;-75
2023/03/17 04:17:44;;;;;;;5.10;3.60;;;;;;;5.52;76.86;100629.94;4947886;29;20031;-75
2023/03/17 04:20:11;;;;;;;5.30;3.10;;;;;;;5.49;76.72;100627.41;4947916;29;20469;-75
2023/03/17 04:22:36;;;;;;;5.88;3.00;;;;;;;5.46;76.56;100624.91;4949056;28;20577;-75
2023/03/17 04:25:02;;;;;;;7.70;3.15;;;;;;;5.46;76.13;100621.31;4946881;29;20472;-75
2023/03/17 04:27:27;;;;;;;8.75;3.65;;;;;;;5.49;76.62;100632.78;4949134;28;20042;-75
2023/03/17 04:29:53;;;;;;;7.40;3.63;;;;;;;5.51;76.66;100630.03;4947452;28;20498;-75
2023/03/17 04:32:19;;;;;;;7.60;3.50;;;;;;;5.50;76.54;100626.47;4948688;29;20035;-76
2023/03/17 04:34:44;;;;;;;6.90;4.50;;;;;;;5.48;76.34;100624.78;4948566;28;20463;-76
2023/03/17 04:37:10;;;;;;;7.05;3.75;;;;;;;5.47;76.62;100626.63;4948701;28;20039;-76
2023/03/17 04:39:36;;;;;;;6.20;3.90;;;;;;;5.47;77.16;100628.47;4947124;29;20078;-75
2023/03/17 04:42:02;;;;;;;6.75;3.53;;;;;;;5.44;76.82;100628.63;4946653;28;20054;-75
2023/03/17 04:44:27;;;;;;;5.15;3.97;;;;;;;5.42;76.80;100628.72;4949666;28;20031;-75
2023/03/17 04:46:53;;;;;;;5.60;2.67;;;;;;;5.42;76.78;100641.31;4931533;29;20035;-76
2023/03/17 04:49:18;;;;;;;6.40;3.03;;;;;;;5.41;77.37;100632.38;4932034;29;20106;-76
2023/03/17 04:51:43;;;;;;;7.72;4.40;;;;;;;5.37;77.71;100637.06;4930678;28;20074;-76
2023/03/17 04:54:09;;;;;;;7.43;2.83;;;;;;;5.36;77.65;100626.31;4947430;29;20507;-76
2023/03/17 04:56:35;;;;;;;7.35;3.22;;;;;;;5.34;77.51;100623.72;4945576;29;20023;-75
2023/03/17 04:59:00;;;;;;;6.63;3.10;;;;;;;5.31;77.84;100621.19;4948377;28;20453;-75
2023/03/17 05:01:26;;;;;;;6.85;3.47;;;;;;;5.36;77.66;100632.63;4930838;29;20074;-76
2023/03/17 05:03:52;;;;;;;6.53;3.10;;;;;;;5.38;77.50;100622.59;4946681;28;20471;-76
2023/03/17 05:06:17;;;;;;;4.35;3.03;;;;;;;5.38;77.81;100613.63;4930670;29;20455;-75
2023/03/17 05:08:43;;;;;;;11.40;3.78;;;;;;;5.42;77.96;100607.13;4948113;28;20142;-75
2023/03/17 05:11:10;;;;;;;7.90;3.22;;;;;;;5.43;77.63;100600.78;4947606;29;20054;-75
2023/03/17 05:13:35;;;;;;;9.10;3.78;;;;;;;5.45;77.30;100598.84;4946057;28;20050;-76
2023/03/17 05:16:01;;;;;;;6.90;3.47;;;;;;;5.50;77.27;100602.19;4932998;29;20039;-75
2023/03/17 05:18:26;;;;;;;8.57;4.38;;;;;;;5.52;77.28;100607.50;4930338;29;20043;-75
2023/03/17 05:20:52;;;;;;;6.97;3.58;;;;;;;5.51;77.17;100595.81;4946755;29;20038;-76
2023/03/17 05:23:18;;;;;;;10.45;4.03;;;;;;;5.54;76.47;100613.66;4946517;28;20058;-75
2023/03/17 05:25:44;;;;;;;10.90;3.78;;;;;;;5.55;77.11;100608.19;4945648;29;20463;-75
2023/03/17 05:28:10;;;;;;;6.85;3.65;;;;;;;5.55;76.62;100610.91;4947368;28;20371;-76
2023/03/17 05:30:35;;;;;;;6.30;3.78;;;;;;;5.56;76.86;100615.31;4946204;28;20046;-76
2023/03/17 05:33:04;;;;;;;6.90;3.28;;;;;;;5.55;77.53;100619.00;4946562;28;20606;-76
2023/03/17 05:35:30;;;;;;;6.43;3.20;;;;;;;5.55;76.67;100615.41;4946049;28;20015;-76
2023/03/17 05:37:55;;;;;;;5.88;3.15;;;;;;;5.60;76.91;100627.69;4946502;28;20764;-76
2023/03/17 05:40:22;;;;;;;6.85;3.55;;;;;;;5.59;76.62;100627.75;4945381;28;20440;-76
2023/03/17 05:42:49;;;;;;;5.90;3.47;;;;;;;5.57;77.08;100619.75;4945548;29;20019;-76
2023/03/17 05:45:14;;;;;;;11.10;3.80;;;;;;;5.53;77.02;100628.09;4946908;28;20035;-76
2023/03/17 05:47:40;;;;;;;6.93;3.95;;;;;;;5.52;76.97;100618.28;4946217;29;20109;-76
2023/03/17 05:50:06;;;;;;;7.10;3.38;;;;;;;5.50;78.68;100612.97;4945869;29;20039;-76
2023/03/17 05:52:32;;;;;;;5.53;3.40;;;;;;;5.48;77.95;100619.41;4947172;28;20051;-75
2023/03/17 05:54:57;;;;;;;6.07;3.58;;;;;;;5.47;78.03;100618.53;4947663;29;20330;-76
2023/03/17 05:57:23;;;;;;;4.60;3.38;;;;;;;5.44;78.84;100616.00;4961628;28;20112;-76
2023/03/17 05:59:49;;;;;;;10.20;3.60;;;;;;;5.44;78.64;100621.38;4957779;28;20093;-76
2023/03/17 06:02:15;;;;;;;5.32;2.78;;;;;;;5.44;78.24;100618.69;4970925;28;20046;-76
2023/03/17 06:04:40;;;;;;;5.40;3.22;;;;;;;5.44;77.35;100612.44;4965167;28;20039;-75
2023/03/17 06:07:06;;;;;;;7.53;3.33;;;;;;;5.43;78.48;100610.69;4948782;28;20039;-75
2023/03/17 06:09:32;;;;;;;9.80;3.60;;;;;;;5.43;78.06;100614.25;4947394;29;20113;-75
2023/03/17 06:11:58;;;;;;;8.45;3.50;;;;;;;5.42;78.13;100600.88;4945596;29;20106;-75
2023/03/17 06:14:24;;;;;;;8.57;3.83;;;;;;;5.43;78.04;100613.38;4947313;28;20039;-76
2023/03/17 06:16:49;;;;;;;8.68;3.80;;;;;;;5.43;78.54;100602.59;4968721;28;20019;-76
2023/03/17 06:19:15;;;;;;;8.07;3.60;;;;;;;5.46;77.90;100613.22;4944710;29;20106;-75
2023/03/17 06:21:41;;;;;;;6.10;3.58;;;;;;;5.45;77.70;100615.03;4946541;28;20408;-75
2023/03/17 06:24:07;;;;;;;5.78;3.58;;;;;;;5.51;77.78;100614.72;4964557;28;20050;-76
2023/03/17 06:26:32;;;;;;;8.68;3.97;;;;;;;5.55;78.44;100612.72;4945954;28;20493;-76
2023/03/17 06:28:58;;;;;;;8.25;3.22;;;;;;;5.58;78.63;100617.94;4965020;28;20125;-75
2023/03/17 06:31:23;;;;;;;6.38;3.60;;;;;;;5.61;79.04;100623.16;4956656;28;20031;-75
2023/03/17 06:33:48;;;;;;;8.52;3.92;;;;;;;5.65;78.68;100613.94;4966724;28;20066;-76
2023/03/17 06:36:14;;;;;;;8.75;3.50;;;;;;;5.69;78.00;100622.72;4968547;28;20027;-76
2023/03/17 06:38:40;;;;;;;7.93;3.83;;;;;;;5.73;78.44;100625.16;4950332;28;20042;-76
2023/03/17 06:41:05;;;;;;;10.48;4.20;;;;;;;5.80;78.57;100621.19;4936328;28;20046;-76
2023/03/17 06:43:32;;;;;;;9.80;4.00;;;;;;;5.84;78.12;100614.66;4967781;28;20526;-75
2023/03/17 06:45:57;;;;;;;10.32;3.75;;;;;;;5.90;78.76;100616.13;4947643;29;20039;-75
2023/03/17 06:48:23;;;;;;;5.53;3.72;;;;;;;6.00;78.31;100625.47;4959138;28;20458;-76
2023/03/17 06:50:49;;;;;;;9.80;3.63;;;;;;;6.08;77.75;100617.81;4966767;28;20046;-76
2023/03/17 06:53:15;;;;;;;10.80;3.83;;;;;;;6.18;77.54;100622.69;4960671;28;20495;-75
2023/03/17 06:55:40;;;;;;;7.78;3.80;;;;;;;6.27;77.99;100623.03;4968114;28;20031;-76
2023/03/17 06:58:08;;;;;;;9.38;4.13;;;;;;;6.38;77.94;100614.28;4968241;28;20022;-76
2023/03/17 07:00:33;;;;;;;7.28;3.22;;;;;;;6.50;77.28;100613.56;4954568;28;20133;-76
2023/03/17 07:02:59;;;;;;;7.88;4.10;;;;;;;6.65;77.14;100619.88;4949968;29;20202;-75
2023/03/17 07:05:25;;;;;;;5.65;3.92;;;;;;;6.74;77.62;100623.88;4950376;28;20039;-76
2023/03/17 07:07:50;;;;;;;8.98;3.92;;;;;;;6.84;77.73;100630.47;4948925;28;20035;-75
2023/03/17 07:10:16;;;;;;;6.80;3.58;;;;;;;6.96;78.10;100627.03;4932376;29;20046;-75
2023/03/17 07:12:42;;;;;;;9.40;3.80;;;;;;;7.05;77.84;100631.88;4932497;29;20534;-76
2023/03/17 07:15:08;;;;;;;8.70;3.58;;;;;;;7.11;77.47;100620.66;4950391;28;20023;-76
2023/03/17 07:17:34;;;;;;;9.98;4.00;;;;;;;7.30;76.86;100619.53;4950715;29;20043;-75
2023/03/17 07:19:59;;;;;;;7.72;3.50;;;;;;;7.53;76.23;100634.31;4960318;28;20540;-76
2023/03/17 07:22:25;;;;;;;6.97;3.85;;;;;;;7.72;74.49;100626.75;4962646;28;20042;-76
2023/03/17 07:24:52;;;;;;;5.85;3.25;;;;;;;7.89;74.05;100626.56;4959768;28;20529;-75
2023/03/17 07:27:18;;;;;;;8.60;3.30;;;;;;;8.01;74.42;100630.28;4951392;28;20081;-76
2023/03/17 07:29:43;;;;;;;7.93;3.00;;;;;;;8.13;73.02;100628.63;4964206;28;20058;-76
2023/03/17 07:32:09;;;;;;;8.15;2.90;;;;;;;8.26;72.25;100612.44;4950088;29;20054;-76
2023/03/17 07:34:35;;;;;;;8.10;3.20;;;;;;;8.36;72.48;100617.16;4955401;28;20108;-76
2023/03/17 07:37:03;;;;;;;9.65;3.50;;;;;;;8.50;72.11;100599.09;4964291;28;20077;-76
2023/03/17 07:39:29;;;;;;;7.70;3.05;;;;;;;8.61;70.45;100596.50;4971479;28;20030;-76
2023/03/17 07:41:55;;;;;;;8.57;3.67;;;;;;;8.72;70.76;100596.66;4964571;28;20049;-76
2023/03/17 07:44:21;;;;;;;7.50;3.05;;;;;;;8.83;70.27;100598.63;4964196;28;20031;-75
2023/03/17 07:46:48;;;;;;;10.23;2.92;;;;;;;8.97;69.92;100597.66;4952644;28;20035;-75
2023/03/17 07:49:13;;;;;;;7.07;3.33;;;;;;;9.06;68.78;100605.16;4968713;28;20054;-76
2023/03/17 07:51:41;;;;;;;12.55;3.47;;;;;;;9.17;69.04;100605.28;4965586;28;20035;-76
2023/03/17 07:54:08;;;;;;;6.65;2.95;;;;;;;9.29;67.62;100611.69;4967906;28;20034;-76
2023/03/17 07:56:34;;;;;;;6.30;3.17;;;;;;;9.36;66.72;100600.28;4967570;28;20045;-76
2023/03/17 07:59:00;;;;;;;8.93;3.17;;;;;;;9.45;67.64;100609.59;4959588;28;20027;-76
2023/03/17 08:01:26;;;;;;;4.70;2.97;;;;;;;9.55;67.31;100621.53;4950392;28;20085;-76
2023/03/17 08:03:52;;;;;;;5.70;2.80;;;;;;;9.65;67.81;100621.75;4967293;28;20259;-76
2023/03/17 08:06:18;;;;;;;6.10;3.15;;;;;;;9.70;67.64;100612.31;4964698;28;20545;-76
2023/03/17 08:08:43;;;;;;;30.05;5.28;;;;;;;9.85;68.56;100623.91;4953165;28;20034;-75
2023/03/17 08:11:09;;;;;;;9.63;3.40;;;;;;;9.88;64.50;100601.06;4967550;28;20134;-76
2023/03/17 08:13:34;;;;;;;6.80;3.58;;;;;;;10.02;64.60;100603.63;4950862;28;20510;-76
2023/03/17 08:16:00;;;;;;;5.72;2.97;;;;;;;10.13;65.60;100613.72;4949987;28;20043;-76
2023/03/17 08:18:25;;;;;;;6.78;2.47;;;;;;;10.17;65.27;100613.38;4948349;29;20130;-76
2023/03/17 08:20:51;;;;;;;8.18;3.50;;;;;;;10.33;64.59;100623.13;4947852;29;20684;-77
2023/03/17 08:23:18;;;;;;;8.20;3.28;;;;;;;10.40;63.84;100614.41;4946882;28;20399;-76
2023/03/17 08:25:43;;;;;;;5.68;2.63;;;;;;;10.50;63.14;100614.56;4947117;29;20464;-76
2023/03/17 08:28:09;;;;;;;8.48;2.70;;;;;;;10.58;64.18;100606.69;4931392;29;20050;-76
2023/03/17 08:30:36;;;;;;;9.95;3.45;;;;;;;10.72;63.56;100616.50;4931959;29;20496;-76
2023/03/17 08:33:04;;;;;;;5.13;2.50;;;;;;;10.84;64.62;100604.69;4948104;29;20543;-75
2023/03/17 08:35:30;;;;;;;6.05;2.60;;;;;;;10.95;63.19;100604.69;4949569;28;20032;-76
2023/03/17 08:37:55;;;;;;;7.28;3.45;;;;;;;11.04;61.80;100605.84;4937297;29;20031;-76
2023/03/17 08:40:21;;;;;;;6.57;2.75;;;;;;;11.15;61.08;100605.03;4948840;28;20203;-76
2023/03/17 08:42:48;;;;;;;5.13;2.67;;;;;;;11.24;61.98;100598.84;4948698;28;20418;-76
2023/03/17 08:45:15;;;;;;;5.60;3.55;;;;;;;11.33;61.88;100586.34;4953452;28;20047;-76
2023/03/17 08:47:41;;;;;;;5.50;2.83;;;;;;;11.39;61.08;100585.88;4962893;28;20054;-76
2023/03/17 08:50:12;;;;;;;7.15;2.80;;;;;;;11.50;61.46;100592.16;4956022;28;20057;-77
2023/03/17 08:52:38;;;;;;;4.53;2.45;;;;;;;11.56;61.55;100598.97;4947767;28;20031;-76
2023/03/17 08:55:03;;;;;;;5.03;2.83;;;;;;;11.73;62.91;100606.66;4956052;28;20066;-76
2023/03/17 08:57:29;;;;;;;8.23;3.17;;;;;;;11.90;62.78;100613.50;4934314;28;20046;-76
2023/03/17 08:59:54;;;;;;;6.85;2.92;;;;;;;12.05;61.56;100607.78;4958056;28;20031;-76
2023/03/17 09:02:20;;;;;;;7.35;3.08;;;;;;;12.23;60.60;100609.00;4966034;28;20046;-77
2023/03/17 09:04:45;;;;;;;6.35;2.70;;;;;;;12.38;59.91;100593.19;4954457;28;20046;-76
2023/03/17 09:07:11;;;;;;;5.40;3.10;;;;;;;12.50;60.19;100592.19;4944546;29;20065;-77
2023/03/17 09:09:37;;;;;;;4.85;3.63;;;;;;;12.59;60.90;100596.84;4958393;28;20039;-75
2023/03/17 09:12:05;;;;;;;6.47;3.08;;;;;;;12.65;58.71;100598.19;4974624;28;20193;-76
2023/03/17 09:14:31;;;;;;;4.35;2.65;;;;;;;12.74;58.71;100603.72;4964368;28;20493;-76
2023/03/17 09:16:57;;;;;;;6.35;2.80;;;;;;;12.78;56.98;100596.16;4965773;28;20070;-76
2023/03/17 09:19:22;;;;;;;3.92;2.83;;;;;;;12.82;56.97;100604.91;4958395;28;20114;-75
2023/03/17 09:21:50;;;;;;;6.10;2.90;;;;;;;12.75;56.79;100594.53;4948085;28;20510;-76
2023/03/17 09:24:17;;;;;;;4.85;2.63;;;;;;;12.75;56.99;100589.06;4937405;28;20102;-76
2023/03/17 09:26:42;;;;;;;5.05;3.00;;;;;;;12.84;57.78;100595.63;4945097;28;20046;-76
2023/03/17 09:29:07;;;;;;;4.85;3.17;;;;;;;12.89;56.77;100590.63;4927721;28;20046;-75
2023/03/17 09:31:35;;;;;;;4.07;2.38;;;;;;;12.97;57.26;100598.16;4961865;28;20066;-75
2023/03/17 09:34:00;;;;;;;8.90;3.20;;;;;;;13.10;57.03;100587.00;4967329;28;20551;-76
2023/03/17 09:36:26;;;;;;;8.20;3.22;;;;;;;13.23;56.97;100594.03;4962656;28;20229;-76
2023/03/17 09:38:51;;;;;;;4.60;2.70;;;;;;;13.31;57.74;100582.44;4950098;28;20504;-76
2023/03/17 09:41:22;;;;;;;6.22;2.78;;;;;;;13.42;57.55;100579.63;4971280;28;20066;-77
2023/03/17 09:44:18;;;;;;;5.35;2.70;;;;;;;13.51;56.46;100580.66;4953999;28;20495;-77
2023/03/17 09:47:03;;;;;;;5.70;2.90;;;;;;;13.55;58.02;100575.81;4962953;28;20097;-77
2023/03/17 09:49:36;;;;;;;5.63;3.10;;;;;;;13.61;58.49;100583.44;4945737;28;20043;-77
2023/03/17 09:52:02;;;;;;;5.07;2.70;;;;;;;13.62;56.81;100580.59;4956835;28;20141;-77
2023/03/17 09:54:33;;;;;;;7.20;2.95;;;;;;;13.65;57.45;100593.97;4957344;28;20033;-77
2023/03/17 09:57:21;;;;;;;7.43;2.80;;;;;;;13.74;58.89;100592.28;4943969;28;20379;-77
2023/03/17 09:59:53;;;;;;;5.28;2.78;;;;;;;13.77;59.69;100590.16;4943465;28;20129;-78
2023/03/17 10:02:30;;;;;;;12.98;3.35;;;;;;;13.83;59.40;100599.66;4931378;29;20426;-78
2023/03/17 10:04:56;;;;;;;7.47;3.38;;;;;;;13.82;56.41;100608.88;4960246;28;20049;-78
2023/03/17 10:07:40;;;;;;;4.18;2.38;;;;;;;13.80;59.67;100610.84;4944747;29;20358;-78
2023/03/17 10:10:28;;;;;;;7.88;3.90;;;;;;;13.76;59.59;100621.22;4947417;28;20043;-78
2023/03/17 10:13:16;;;;;;;8.95;3.38;;;;;;;13.75;58.92;100613.13;4945662;29;20426;-78
2023/03/17 10:15:50;;;;;;;5.95;3.00;;;;;;;13.71;59.53;100609.84;4943479;29;20027;-78
2023/03/17 10:18:17;;;;;;;5.22;2.70;;;;;;;13.72;58.74;100621.63;4947993;29;20038;-78
2023/03/17 10:20:50;;;;;;;4.18;2.85;;;;;;;13.75;60.22;100638.63;4945874;28;20039;-78
2023/03/17 10:23:20;;;;;;;6.70;3.00;;;;;;;13.74;58.05;100649.69;4939286;29;20089;-79
2023/03/17 10:25:47;;;;;;;6.43;3.15;;;;;;;13.65;58.78;100632.25;4946679;28;20043;-79
2023/03/17 10:28:28;;;;;;;5.10;3.22;;;;;;;13.79;61.31;100639.22;4929889;29;20046;-79
2023/03/17 10:31:00;;;;;;;7.18;3.40;;;;;;;13.91;60.36;100645.47;4947067;28;20118;-79
2023/03/17 10:33:25;;;;;;;7.30;2.80;;;;;;;13.98;58.36;100639.28;4930665;28;20047;-79
2023/03/17 10:35:50;;;;;;;6.65;3.17;;;;;;;14.19;60.93;100635.63;4945118;29;20263;-78
2023/03/17 10:38:19;;;;;;;10.15;2.88;;;;;;;14.41;57.81;100638.13;4930049;29;20054;-78
2023/03/17 10:40:54;;;;;;;7.95;3.00;;;;;;;14.62;59.17;100627.09;4929689;29;20074;-78
2023/03/17 10:43:20;;;;;;;6.80;3.78;;;;;;;14.79;58.17;100634.63;4945173;28;20039;-79
2023/03/17 10:46:15;;;;;;;6.72;3.10;;;;;;;14.99;58.55;100630.00;4947674;28;20041;-79
2023/03/17 10:48:41;;;;;;;7.53;2.80;;;;;;;15.16;58.64;100622.91;4948185;28;20050;-79
2023/03/17 10:51:08;;;;;;;4.78;3.00;;;;;;;15.39;56.60;100626.19;4947166;29;20051;-78
2023/03/17 10:53:42;;;;;;;5.18;2.72;;;;;;;15.61;57.96;100633.19;4941316;29;20050;-78
2023/03/17 10:56:22;;;;;;;9.55;2.80;;;;;;;15.79;58.00;100630.56;4946961;29;20036;-79
2023/03/17 10:58:50;;;;;;;4.82;2.42;;;;;;;15.95;56.26;100625.31;4945401;28;20322;-79
2023/03/17 11:01:19;;;;;;;5.18;2.35;;;;;;;16.12;55.09;100626.38;4946980;28;20042;-78
2023/03/17 11:03:46;;;;;;;6.30;3.25;;;;;;;16.23;54.28;100625.31;4945736;29;20050;-79
2023/03/17 11:06:17;;;;;;;3.60;2.40;;;;;;;16.37;53.87;100613.81;4954741;28;20113;-80
2023/03/17 11:08:54;;;;;;;4.90;3.00;;;;;;;16.51;54.12;100609.69;4948405;28;20051;-79
2023/03/17 11:11:29;;;;;;;6.68;2.70;;;;;;;16.66;52.19;100604.50;4964496;28;20234;-80
2023/03/17 11:14:12;;;;;;;8.50;2.80;;;;;;;16.85;55.40;100600.78;4949991;28;20466;-80
2023/03/17 11:16:53;;;;;;;6.22;3.13;;;;;;;17.22;55.64;100598.69;4941313;28;20129;-80
2023/03/17 11:19:25;;;;;;;8.15;2.80;;;;;;;17.38;52.16;100600.69;4970220;28;20038;-80
2023/03/17 11:22:01;;;;;;;;;;;;;;;17.55;54.49;100588.75;4951849;28;20035;-80
2023/03/17 11:24:31;;;;;;;7.10;2.53;;;;;;;17.75;51.63;100594.06;4934494;29;19968;-79
2023/03/17 11:27:01;;;;;;;5.28;2.58;;;;;;;17.82;50.62;100593.25;4946394;28;20093;-80
2023/03/17 11:29:33;;;;;;;8.10;3.10;;;;;;;17.89;49.98;100587.94;4947572;28;20419;-79
2023/03/17 11:32:24;;;;;;;7.53;2.78;;;;;;;18.03;52.02;100590.06;4952182;28;20517;-79
2023/03/17 11:34:52;;;;;;;7.30;2.78;;;;;;;18.20;51.71;100601.16;4969840;28;20047;-79